Time;durP1;ratioP1;P1;durP2;ratioP2;P2;SDS_P1;SDS_P2;PMS_P1;PMS_P2;Temp;Humidity;BMP_temperature;BMP_pressure;BME280_temperature;BME280_humidity;BME280_pressure;Samples;Min_cycle;Max_cycle;Signal;HPM_P1;HPM_P2
2023/01/05 00:01:32;;;;;;;21.92;4.00;;;9.70;99.90;;;;;;5077215;28;20086;-65
2023/01/05 00:03:57;;;;;;;27.90;4.95;;;9.70;99.90;;;;;;5079102;28;20048;-65
2023/01/05 00:06:23;;;;;;;25.98;3.97;;;9.70;99.90;;;;;;5057567;28;20406;-65
2023/01/05 00:08:49;;;;;;;29.88;4.38;;;9.70;99.90;;;;;;5077289;28;20486;-65
2023/01/05 00:22:29;;;;;;;25.73;3.90;;;9.70;99.90;;;;;;5078259;28;20050;-66
2023/01/05 00:24:59;;;;;;;25.25;3.58;;;9.70;99.90;;;;;;5077167;28;20036;-66
2023/01/05 00:27:25;;;;;;;31.50;4.93;;;9.70;99.90;;;;;;5074909;28;20176;-65
2023/01/05 00:29:51;;;;;;;22.52;4.55;;;9.70;99.90;;;;;;5061491;28;20044;-66
2023/01/05 00:32:17;;;;;;;22.05;3.97;;;9.80;99.90;;;;;;5061467;28;20074;-65
2023/01/05 00:34:43;;;;;;;23.27;3.83;;;9.80;99.90;;;;;;5062395;28;20345;-65
2023/01/05 00:37:08;;;;;;;26.10;4.22;;;9.80;99.90;;;;;;5076342;28;20452;-65
2023/01/05 00:39:34;;;;;;;30.38;4.93;;;9.80;99.90;;;;;;5060262;28;20391;-66
2023/01/05 00:42:00;;;;;;;19.98;3.35;;;9.80;99.90;;;;;;5059153;28;20036;-65
2023/01/05 00:44:25;;;;;;;29.15;4.80;;;9.80;99.90;;;;;;5057927;28;20119;-65
2023/01/05 00:46:51;;;;;;;26.83;4.55;;;9.80;99.90;;;;;;5061200;28;20040;-65
2023/01/05 00:49:17;;;;;;;20.35;4.18;;;9.80;99.90;;;;;;5075574;28;20035;-65
2023/01/05 00:51:43;;;;;;;28.35;4.93;;;9.80;99.90;;;;;;5063797;28;20123;-66
2023/01/05 00:54:08;;;;;;;22.98;3.80;;;9.70;99.90;;;;;;5070325;28;20101;-66
2023/01/05 00:56:34;;;;;;;23.05;3.33;;;9.70;99.90;;;;;;5059505;28;20116;-66
2023/01/05 00:59:00;;;;;;;26.15;3.90;;;9.70;99.90;;;;;;5061481;28;20093;-66
2023/01/05 01:01:26;;;;;;;22.48;3.35;;;9.70;99.90;;;;;;5057528;28;20040;-66
2023/01/05 01:03:51;;;;;;;25.42;3.97;;;9.70;99.90;;;;;;5063691;28;20039;-66
2023/01/05 01:06:17;;;;;;;24.77;4.35;;;9.70;99.90;;;;;;5077562;28;20051;-66
2023/01/05 01:08:43;;;;;;;22.55;3.80;;;9.60;99.90;;;;;;5061759;28;20047;-67
2023/01/05 01:11:10;;;;;;;26.27;4.72;;;9.60;99.90;;;;;;5084617;28;20511;-66
2023/01/05 01:13:37;;;;;;;22.55;3.72;;;9.50;99.90;;;;;;5076361;28;20400;-67
2023/01/05 01:16:07;;;;;;;26.08;4.47;;;9.50;99.90;;;;;;5081686;28;20467;-66
2023/01/05 01:18:33;;;;;;;29.60;4.78;;;9.50;99.90;;;;;;5082496;28;20149;-66
2023/01/05 01:20:59;;;;;;;26.42;3.63;;;9.60;99.90;;;;;;5064916;28;20052;-66
2023/01/05 01:23:26;;;;;;;28.02;4.32;;;9.60;99.90;;;;;;5065764;28;20039;-66
2023/01/05 01:25:51;;;;;;;25.48;4.18;;;9.60;99.90;;;;;;5075560;28;20396;-66
2023/01/05 01:28:17;;;;;;;28.60;4.45;;;9.60;99.90;;;;;;5069076;28;20047;-66
2023/01/05 01:30:43;;;;;;;26.98;4.55;;;9.70;99.90;;;;;;5080323;28;20036;-66
2023/01/05 01:33:08;;;;;;;26.60;4.28;;;9.70;99.90;;;;;;5080779;28;20093;-66
2023/01/05 01:35:36;;;;;;;31.15;5.07;;;9.70;99.90;;;;;;5080504;28;20066;-66
2023/01/05 01:38:03;;;;;;;24.38;5.25;;;9.70;99.90;;;;;;5062102;28;20075;-66
2023/01/05 01:40:29;;;;;;;29.73;4.75;;;9.60;99.90;;;;;;5077333;28;20433;-66
2023/01/05 01:42:54;;;;;;;25.65;4.25;;;9.60;99.90;;;;;;5065717;28;20046;-66
2023/01/05 01:45:24;;;;;;;25.17;4.55;;;9.60;99.90;;;;;;5083222;28;20119;-66
2023/01/05 01:47:57;;;;;;;25.42;4.47;;;9.70;99.90;;;;;;5065918;28;20040;-66
2023/01/05 01:50:28;;;;;;;23.08;3.95;;;9.70;99.90;;;;;;5074781;28;20060;-66
2023/01/05 01:53:01;;;;;;;19.58;3.55;;;9.70;99.90;;;;;;5077222;28;20033;-66
2023/01/05 01:55:28;;;;;;;21.30;3.63;;;9.70;99.90;;;;;;5082524;28;20146;-66
2023/01/05 01:57:54;;;;;;;26.90;3.97;;;9.70;99.90;;;;;;5080295;28;20040;-66
2023/01/05 02:00:20;;;;;;;28.90;4.13;;;9.70;99.90;;;;;;5061904;28;20054;-66
2023/01/05 02:02:48;;;;;;;23.65;4.07;;;9.70;99.90;;;;;;5063243;28;20387;-67
2023/01/05 02:05:16;;;;;;;24.83;4.43;;;9.70;99.90;;;;;;5062834;28;20545;-66
2023/01/05 02:07:45;;;;;;;25.75;3.70;;;9.70;99.90;;;;;;5081811;28;20046;-66
2023/01/05 02:10:11;;;;;;;30.20;5.43;;;9.70;99.90;;;;;;5081119;28;20040;-67
2023/01/05 02:12:42;;;;;;;28.23;3.67;;;9.70;99.90;;;;;;5080392;28;20079;-66
2023/01/05 02:15:08;;;;;;;26.52;4.80;;;9.70;99.90;;;;;;5082889;28;20037;-66
2023/01/05 02:18:02;;;;;;;21.77;3.47;;;9.70;99.90;;;;;;5060878;28;20082;-67
2023/01/05 02:20:34;;;;;;;24.88;3.92;;;9.70;99.90;;;;;;5081052;28;20387;-66
2023/01/05 02:23:30;;;;;;;23.30;3.78;;;9.70;99.90;;;;;;5081208;28;20425;-66
2023/01/05 02:26:34;;;;;;;25.30;3.70;;;9.70;99.90;;;;;;5064607;28;20107;-66
2023/01/05 02:29:17;;;;;;;26.85;4.50;;;9.60;99.90;;;;;;5080046;28;20032;-66
2023/01/05 02:31:56;;;;;;;22.40;4.10;;;9.60;99.90;;;;;;5074325;28;20114;-66
2023/01/05 02:34:27;;;;;;;22.50;3.55;;;9.60;99.90;;;;;;5081623;28;20496;-65
2023/01/05 02:36:59;;;;;;;23.77;4.10;;;9.70;99.90;;;;;;5085004;28;20044;-66
2023/01/05 02:39:43;;;;;;;23.85;4.13;;;9.60;99.90;;;;;;5075210;28;20036;-66
2023/01/05 02:42:21;;;;;;;27.33;4.18;;;9.70;99.90;;;;;;5077598;28;20448;-64
2023/01/05 02:44:47;;;;;;;24.13;3.83;;;9.70;99.90;;;;;;5083957;28;20116;-65
2023/01/05 02:47:26;;;;;;;23.83;4.68;;;9.60;99.90;;;;;;5078812;28;20060;-65
2023/01/05 02:50:07;;;;;;;22.25;3.22;;;9.70;99.90;;;;;;5056934;28;20439;-65
2023/01/05 02:52:46;;;;;;;25.92;3.95;;;9.60;99.90;;;;;;5083223;28;20056;-64
2023/01/05 02:55:16;;;;;;;27.83;3.85;;;9.60;99.90;;;;;;5082446;28;20357;-66
2023/01/05 02:57:55;;;;;;;24.65;3.95;;;9.60;99.90;;;;;;5075068;28;20158;-66
2023/01/05 03:00:35;;;;;;;23.67;4.57;;;9.60;99.90;;;;;;5078524;28;20050;-66
2023/01/05 03:03:24;;;;;;;23.15;3.75;;;9.50;99.90;;;;;;5079695;28;20094;-66
2023/01/05 03:06:03;;;;;;;35.05;5.43;;;9.50;99.90;;;;;;5047550;28;20044;-66
2023/01/05 03:08:32;;;;;;;23.42;3.90;;;9.40;99.90;;;;;;5072195;28;20116;-66
2023/01/05 03:14:12;;;;;;;29.17;4.05;;;9.50;99.90;;;;;;5060911;28;20112;-66
2023/01/05 03:16:38;;;;;;;26.02;4.68;;;9.50;99.90;;;;;;5079082;28;20037;-66
2023/01/05 03:35:59;;;;;;;27.20;3.95;;;9.50;99.90;;;;;;5083294;28;20143;-66
2023/01/05 03:38:32;;;;;;;23.08;4.13;;;9.50;99.90;;;;;;5080025;28;20036;-66
2023/01/05 03:41:01;;;;;;;29.70;4.43;;;9.40;99.90;;;;;;5077882;28;20423;-65
2023/01/05 03:43:27;;;;;;;27.05;4.55;;;9.50;99.90;;;;;;5061464;28;20110;-66
2023/01/05 03:45:55;;;;;;;21.70;4.32;;;9.50;99.90;;;;;;5080239;28;20039;-66
2023/01/05 03:48:22;;;;;;;29.95;4.45;;;9.50;99.90;;;;;;5077943;28;20032;-66
2023/01/05 03:50:48;;;;;;;28.42;4.80;;;9.50;99.90;;;;;;5077603;28;20130;-66
2023/01/05 03:53:14;;;;;;;32.58;4.53;;;9.50;99.90;;;;;;5060781;28;20052;-66
2023/01/05 03:55:39;;;;;;;24.98;4.50;;;9.50;99.90;;;;;;5077461;28;20048;-66
2023/01/05 03:58:05;;;;;;;22.83;3.80;;;9.50;99.90;;;;;;5078706;28;20047;-65
2023/01/05 04:00:31;;;;;;;30.67;3.90;;;9.50;99.90;;;;;;5062493;28;20507;-67
2023/01/05 04:02:57;;;;;;;23.27;4.10;;;9.50;99.90;;;;;;5078542;28;20063;-66
2023/01/05 04:05:23;;;;;;;25.05;3.63;;;9.50;99.90;;;;;;5075984;28;20036;-65
2023/01/05 04:07:49;;;;;;;32.03;3.95;;;9.50;99.90;;;;;;5058359;28;20511;-66
2023/01/05 04:10:15;;;;;;;27.20;5.15;;;9.50;99.90;;;;;;5079737;28;20032;-66
2023/01/05 04:12:41;;;;;;;20.42;4.35;;;9.50;99.90;;;;;;5061231;28;20526;-67
2023/01/05 04:15:07;;;;;;;26.35;4.07;;;9.60;99.90;;;;;;5068103;28;20100;-66
2023/01/05 04:17:33;;;;;;;23.85;4.70;;;9.60;99.90;;;;;;5060780;28;20475;-66
2023/01/05 04:19:58;;;;;;;28.40;4.35;;;9.60;99.90;;;;;;5059853;28;20055;-66
2023/01/05 04:22:24;;;;;;;26.00;4.50;;;9.60;99.90;;;;;;5057795;28;20045;-66
2023/01/05 04:24:50;;;;;;;23.10;4.53;;;9.60;99.90;;;;;;5083259;28;20396;-66
2023/01/05 04:27:16;;;;;;;26.20;4.80;;;9.60;99.90;;;;;;5062020;28;20574;-66
2023/01/05 04:29:41;;;;;;;25.75;4.03;;;9.60;99.90;;;;;;5084776;28;20040;-66
2023/01/05 04:32:07;;;;;;;27.88;4.22;;;9.60;99.90;;;;;;5058335;28;20563;-65
2023/01/05 04:34:33;;;;;;;27.80;4.03;;;9.70;99.90;;;;;;5077390;28;20099;-66
2023/01/05 04:36:59;;;;;;;21.42;4.15;;;9.70;99.90;;;;;;5058496;28;20036;-66
2023/01/05 04:39:24;;;;;;;24.00;3.92;;;9.70;99.90;;;;;;5082798;28;20386;-66
2023/01/05 04:41:50;;;;;;;24.60;3.53;;;9.70;99.90;;;;;;5076391;28;20040;-67
2023/01/05 04:44:16;;;;;;;25.73;4.20;;;9.70;99.90;;;;;;5058441;28;20046;-66
2023/01/05 04:46:41;;;;;;;23.38;3.80;;;9.70;99.90;;;;;;5083778;28;20074;-65
2023/01/05 04:49:09;;;;;;;27.80;4.45;;;9.70;99.90;;;;;;5086670;28;20036;-65
2023/01/05 04:51:35;;;;;;;30.00;4.25;;;9.70;99.90;;;;;;5058550;28;21753;-66
2023/01/05 04:54:01;;;;;;;20.15;4.30;;;9.70;99.90;;;;;;5068031;28;20059;-66
2023/01/05 04:56:27;;;;;;;24.63;4.80;;;9.70;99.90;;;;;;5085687;28;20111;-66
2023/01/05 04:58:52;;;;;;;21.50;3.92;;;9.70;99.90;;;;;;5067026;28;20041;-66
2023/01/05 05:01:18;;;;;;;29.63;4.10;;;9.70;99.90;;;;;;5080978;28;20488;-65
2023/01/05 05:03:44;;;;;;;25.15;3.83;;;9.70;99.90;;;;;;5080018;28;20090;-68
2023/01/05 05:06:10;;;;;;;22.70;4.40;;;9.70;99.90;;;;;;5081591;28;20116;-67
2023/01/05 05:08:35;;;;;;;25.63;4.38;;;9.70;99.90;;;;;;5064216;28;20733;-67
2023/01/05 05:11:01;;;;;;;25.17;3.97;;;9.70;99.90;;;;;;5078824;28;20032;-67
2023/01/05 05:13:27;;;;;;;24.52;4.60;;;9.70;99.90;;;;;;5064114;28;20032;-67
2023/01/05 05:15:53;;;;;;;29.30;4.38;;;9.70;99.90;;;;;;5062879;28;20043;-67
2023/01/05 05:18:20;;;;;;;26.92;4.40;;;9.70;99.90;;;;;;5061094;28;20059;-67
2023/01/05 05:20:48;;;;;;;24.50;4.35;;;9.70;99.90;;;;;;5078020;28;20514;-67
2023/01/05 05:23:14;;;;;;;24.35;4.10;;;9.70;99.90;;;;;;5076973;28;20067;-67
2023/01/05 05:25:39;;;;;;;22.90;4.00;;;9.70;99.90;;;;;;5066546;28;20067;-66
2023/01/05 05:28:05;;;;;;;27.65;4.47;;;9.70;99.90;;;;;;5067874;28;20562;-67
2023/01/05 05:30:31;;;;;;;26.25;4.47;;;9.70;99.90;;;;;;5078322;28;20036;-67
2023/01/05 05:32:56;;;;;;;27.88;3.92;;;9.70;99.90;;;;;;5080617;28;20036;-67
2023/01/05 05:35:22;;;;;;;22.02;3.78;;;9.70;99.90;;;;;;5063551;28;20506;-67
2023/01/05 05:37:48;;;;;;;29.63;4.28;;;9.70;99.90;;;;;;5062495;28;20043;-67
2023/01/05 05:40:14;;;;;;;24.42;3.88;;;9.70;99.90;;;;;;5059279;28;20039;-66
2023/01/05 05:42:40;;;;;;;25.38;3.85;;;9.70;99.90;;;;;;5062501;28;20048;-66
2023/01/05 05:45:06;;;;;;;31.73;5.05;;;9.70;99.90;;;;;;5060996;28;20033;-66
2023/01/05 05:47:31;;;;;;;21.45;3.72;;;9.70;99.90;;;;;;5080022;28;20585;-67
2023/01/05 05:49:57;;;;;;;18.17;3.95;;;9.70;99.90;;;;;;5075802;28;20025;-65
2023/01/05 05:52:23;;;;;;;24.98;5.00;;;9.70;99.90;;;;;;5084405;28;20403;-66
2023/01/05 05:54:49;;;;;;;22.65;3.90;;;9.70;99.90;;;;;;5081536;28;20035;-66
2023/01/05 05:57:16;;;;;;;26.38;4.22;;;9.70;99.90;;;;;;5082626;28;20051;-66
2023/01/05 05:59:42;;;;;;;25.70;4.20;;;9.70;99.90;;;;;;5078493;28;20048;-66
2023/01/05 06:02:08;;;;;;;22.63;4.43;;;9.70;99.90;;;;;;5083945;28;20043;-65
2023/01/05 06:04:34;;;;;;;24.98;4.18;;;9.70;99.90;;;;;;5081763;28;20036;-66
2023/01/05 06:06:59;;;;;;;29.20;4.53;;;9.70;99.90;;;;;;5081472;28;20039;-66
2023/01/05 06:09:25;;;;;;;27.83;4.63;;;9.70;99.90;;;;;;5073464;28;20044;-66
2023/01/05 06:11:51;;;;;;;28.85;4.72;;;9.70;99.90;;;;;;5082776;28;20036;-66
2023/01/05 06:14:17;;;;;;;22.00;3.92;;;9.70;99.90;;;;;;5045807;28;20044;-66
2023/01/05 06:16:44;;;;;;;34.47;4.90;;;9.70;99.90;;;;;;5065892;28;20047;-66
2023/01/05 06:19:10;;;;;;;25.13;4.63;;;9.70;99.90;;;;;;5058135;28;20044;-66
2023/01/05 06:21:36;;;;;;;24.65;4.18;;;9.70;99.90;;;;;;5079874;28;20484;-66
2023/01/05 06:24:02;;;;;;;28.02;4.53;;;9.70;99.90;;;;;;5061588;28;20511;-66
2023/01/05 06:26:28;;;;;;;32.40;4.38;;;9.70;99.90;;;;;;5084558;28;20083;-66
2023/01/05 06:28:54;;;;;;;26.20;4.65;;;9.70;99.90;;;;;;5085389;28;20495;-66
2023/01/05 06:31:19;;;;;;;27.88;4.53;;;9.70;99.90;;;;;;5066732;28;20052;-65
2023/01/05 06:33:45;;;;;;;22.05;3.72;;;9.70;99.90;;;;;;5067351;28;20476;-66
2023/01/05 06:36:11;;;;;;;32.30;4.30;;;9.70;99.90;;;;;;5080842;28;20084;-66
2023/01/05 06:38:37;;;;;;;24.20;4.38;;;9.70;99.90;;;;;;5084807;28;20043;-66
2023/01/05 06:41:02;;;;;;;23.85;4.00;;;9.70;99.90;;;;;;5066005;28;20063;-66
2023/01/05 06:43:29;;;;;;;23.75;4.60;;;9.70;99.90;;;;;;5066916;28;20119;-65
2023/01/05 06:45:55;;;;;;;21.35;3.70;;;9.70;99.90;;;;;;5057670;28;20082;-66
2023/01/05 06:48:21;;;;;;;31.00;5.18;;;9.70;99.90;;;;;;5080371;28;20093;-67
2023/01/05 06:50:46;;;;;;;25.50;4.55;;;9.70;99.90;;;;;;5067275;28;20429;-66
2023/01/05 06:53:12;;;;;;;31.58;4.80;;;9.70;99.90;;;;;;5077806;28;20148;-66
2023/01/05 06:55:38;;;;;;;32.50;3.95;;;9.70;99.90;;;;;;5046362;28;20051;-66
2023/01/05 06:58:04;;;;;;;22.85;4.65;;;9.70;99.90;;;;;;5080885;28;20112;-66
2023/01/05 07:00:30;;;;;;;31.83;4.88;;;9.70;99.90;;;;;;5085970;28;20135;-66
2023/01/05 07:02:56;;;;;;;24.40;4.07;;;9.70;99.90;;;;;;5080549;28;20028;-66
2023/01/05 07:05:23;;;;;;;24.55;4.10;;;9.70;99.90;;;;;;5077687;28;20115;-67
2023/01/05 07:07:49;;;;;;;25.27;3.95;;;9.70;99.90;;;;;;5077127;28;20052;-67
2023/01/05 07:10:15;;;;;;;26.58;4.57;;;9.70;99.90;;;;;;5083253;28;20072;-66
2023/01/05 07:12:41;;;;;;;17.90;3.58;;;9.70;99.90;;;;;;5062001;28;20068;-65
2023/01/05 07:15:07;;;;;;;32.58;6.13;;;9.70;99.90;;;;;;5080085;28;20059;-67
2023/01/05 07:17:33;;;;;;;21.63;3.97;;;9.70;99.90;;;;;;5078623;28;20198;-67
2023/01/05 07:19:59;;;;;;;29.42;4.30;;;9.70;99.90;;;;;;5066254;28;20080;-67
2023/01/05 07:22:27;;;;;;;24.80;4.43;;;9.70;99.90;;;;;;5084082;28;20056;-65
2023/01/05 07:24:52;;;;;;;29.30;3.70;;;9.70;99.90;;;;;;5079248;28;20044;-66
2023/01/05 07:27:18;;;;;;;24.30;4.22;;;9.70;99.90;;;;;;5083058;28;20109;-65
2023/01/05 07:29:44;;;;;;;25.55;3.92;;;9.70;99.90;;;;;;5084411;28;20040;-65
2023/01/05 07:32:09;;;;;;;27.42;4.45;;;9.70;99.90;;;;;;5065013;28;20037;-66
2023/01/05 07:34:36;;;;;;;30.40;3.97;;;9.60;99.90;;;;;;5078855;28;20047;-66
2023/01/05 07:37:01;;;;;;;27.92;4.28;;;9.60;99.90;;;;;;5082556;28;20044;-66
2023/01/05 07:39:27;;;;;;;24.05;3.78;;;9.60;99.90;;;;;;5084032;28;20035;-66
2023/01/05 07:41:53;;;;;;;29.13;4.35;;;9.60;99.90;;;;;;5077323;28;20032;-65
2023/01/05 07:44:19;;;;;;;31.38;4.63;;;9.60;99.90;;;;;;5082226;28;20032;-65
2023/01/05 07:46:44;;;;;;;30.88;4.60;;;9.60;99.90;;;;;;5086164;28;20504;-66
2023/01/05 07:49:10;;;;;;;29.15;4.30;;;9.50;99.90;;;;;;5080945;28;20036;-66
2023/01/05 07:51:36;;;;;;;32.08;4.85;;;9.60;99.90;;;;;;5065066;28;20043;-66
2023/01/05 07:54:02;;;;;;;28.52;4.38;;;9.60;99.90;;;;;;5064419;28;20040;-67
2023/01/05 07:56:28;;;;;;;28.95;5.40;;;9.50;99.90;;;;;;5077173;28;20069;-67
2023/01/05 07:58:54;;;;;;;32.50;4.63;;;9.50;99.90;;;;;;5076097;28;20128;-67
2023/01/05 08:01:20;;;;;;;29.65;4.38;;;9.50;99.90;;;;;;5080360;28;20089;-67
2023/01/05 08:03:46;;;;;;;25.48;4.45;;;9.50;99.90;;;;;;5081073;28;20028;-67
2023/01/05 08:06:14;;;;;;;26.15;4.22;;;9.50;99.90;;;;;;5064160;28;20039;-66
2023/01/05 08:08:40;;;;;;;31.45;4.80;;;9.50;99.90;;;;;;5081867;28;20047;-66
2023/01/05 08:11:07;;;;;;;30.88;4.65;;;9.50;99.90;;;;;;5060712;28;20046;-67
2023/01/05 08:16:18;;;;;;;;;;;9.50;99.90;;;;;;5058860;28;20057;-66
2023/01/05 08:18:44;;;;;;;29.83;4.53;;;9.40;99.90;;;;;;5080078;28;20371;-66
2023/01/05 08:21:10;;;;;;;29.05;4.40;;;9.40;99.90;;;;;;5085288;28;20036;-66
2023/01/05 08:23:37;;;;;;;28.63;4.88;;;9.40;99.90;;;;;;5084212;28;20036;-66
2023/01/05 08:26:05;;;;;;;27.25;4.38;;;9.40;99.90;;;;;;5086169;28;20032;-66
2023/01/05 08:28:31;;;;;;;27.08;4.40;;;9.50;99.90;;;;;;5069196;28;20508;-67
2023/01/05 08:31:03;;;;;;;26.75;4.28;;;9.50;99.90;;;;;;5070094;28;20054;-66
2023/01/05 08:33:28;;;;;;;31.15;4.22;;;9.50;99.90;;;;;;5084156;28;20319;-66
2023/01/05 08:35:54;;;;;;;26.38;4.13;;;9.60;99.90;;;;;;5083211;28;20048;-63
2023/01/05 08:38:23;;;;;;;27.75;4.25;;;9.50;99.90;;;;;;5066760;28;20071;-63
2023/01/05 08:40:49;;;;;;;24.98;4.40;;;9.60;99.90;;;;;;5079821;28;20446;-63
2023/01/05 08:43:15;;;;;;;23.15;4.28;;;9.60;99.90;;;;;;5079166;28;20028;-62
2023/01/05 08:45:41;;;;;;;27.90;4.20;;;9.60;99.90;;;;;;5075313;28;20067;-63
2023/01/05 08:48:08;;;;;;;31.35;4.32;;;9.60;99.90;;;;;;5084806;28;20358;-63
2023/01/05 08:50:35;;;;;;;30.38;4.35;;;9.60;99.90;;;;;;5080199;28;20056;-63
2023/01/05 08:53:00;;;;;;;26.65;4.10;;;9.60;99.90;;;;;;5086728;28;20055;-63
2023/01/05 08:55:26;;;;;;;29.73;4.88;;;9.60;99.90;;;;;;5083877;28;20404;-63
2023/01/05 08:57:52;;;;;;;27.58;4.40;;;9.70;99.90;;;;;;5073762;28;20720;-63
2023/01/05 09:00:20;;;;;;;30.58;4.85;;;9.70;99.90;;;;;;5080785;28;20042;-62
2023/01/05 09:02:47;;;;;;;25.15;4.00;;;9.70;99.90;;;;;;5087087;28;20459;-61
2023/01/05 09:05:12;;;;;;;30.15;4.60;;;9.70;99.90;;;;;;5089701;28;20028;-62
2023/01/05 09:07:38;;;;;;;25.73;3.95;;;9.70;99.90;;;;;;5084328;28;20048;-62
2023/01/05 09:10:06;;;;;;;23.05;4.05;;;9.80;99.90;;;;;;5084467;28;20107;-62
2023/01/05 09:12:34;;;;;;;28.23;5.47;;;9.80;99.90;;;;;;5083752;28;20168;-62
2023/01/05 09:15:00;;;;;;;28.08;4.28;;;9.80;99.90;;;;;;5081196;28;20048;-63
2023/01/05 09:17:26;;;;;;;30.38;4.47;;;9.80;99.90;;;;;;5062574;28;20051;-62
2023/01/05 09:19:52;;;;;;;27.58;4.85;;;9.80;99.90;;;;;;5078602;28;20419;-62
2023/01/05 09:22:18;;;;;;;24.85;4.28;;;9.80;99.90;;;;;;5083316;28;20032;-62
2023/01/05 09:24:44;;;;;;;30.08;5.60;;;9.80;99.90;;;;;;5077797;28;20076;-63
2023/01/05 09:27:10;;;;;;;24.02;4.18;;;9.80;99.90;;;;;;5076871;28;20044;-62
2023/01/05 09:29:35;;;;;;;26.13;4.88;;;9.80;99.90;;;;;;5083334;28;20048;-63
2023/01/05 09:32:01;;;;;;;27.40;4.03;;;9.90;99.90;;;;;;5083368;28;20028;-63
2023/01/05 09:34:27;;;;;;;23.13;4.10;;;9.90;99.90;;;;;;5077432;28;20112;-63
2023/01/05 09:36:53;;;;;;;25.50;4.50;;;9.90;99.90;;;;;;5080301;28;20040;-68
2023/01/05 09:39:19;;;;;;;22.48;3.28;;;10.00;99.90;;;;;;5078226;28;20047;-68
2023/01/05 09:41:52;;;;;;;23.08;4.05;;;10.00;99.90;;;;;;5064325;28;20048;-68
2023/01/05 09:44:49;;;;;;;30.35;5.20;;;10.00;99.90;;;;;;5067995;28;20044;-67
2023/01/05 09:47:17;;;;;;;25.33;4.63;;;10.00;99.90;;;;;;5045119;28;20313;-67
2023/01/05 09:49:45;;;;;;;23.55;4.38;;;10.10;99.90;;;;;;5059803;28;20063;-68
2023/01/05 09:52:12;;;;;;;29.10;4.57;;;10.10;99.90;;;;;;5065835;28;20619;-67
2023/01/05 09:54:39;;;;;;;27.08;4.20;;;10.10;99.90;;;;;;5062484;28;20512;-67
2023/01/05 09:57:13;;;;;;;24.83;4.55;;;10.10;99.90;;;;;;5059520;28;20703;-67
2023/01/05 10:00:05;;;;;;;;;;;10.10;99.90;;;;;;5062381;28;20082;-65
2023/01/05 10:02:57;;;;;;;22.50;3.83;;;10.00;99.90;;;;;;5057418;28;19920;-63
2023/01/05 10:05:26;;;;;;;24.25;3.67;;;10.10;99.90;;;;;;5044277;28;20048;-64
2023/01/05 10:08:01;;;;;;;27.35;5.47;;;10.10;99.90;;;;;;5079040;28;20121;-64
2023/01/05 10:13:39;;;;;;;19.30;3.90;;;10.10;99.90;;;;;;5065648;28;20548;-69
2023/01/05 10:16:05;;;;;;;25.35;5.03;;;10.10;99.90;;;;;;5049517;28;20108;-69
2023/01/05 10:18:33;;;;;;;19.83;3.65;;;10.10;99.90;;;;;;5066481;28;20400;-69
2023/01/05 10:21:11;;;;;;;22.02;3.97;;;10.10;99.90;;;;;;5057346;28;20081;-68
2023/01/05 10:23:51;;;;;;;18.60;3.30;;;10.10;99.90;;;;;;5063780;28;20049;-69
2023/01/05 10:26:26;;;;;;;20.95;4.50;;;10.20;99.90;;;;;;5052153;28;20039;-69
2023/01/05 10:28:56;;;;;;;;;;;10.10;99.90;;;;;;5084414;28;20134;-69
2023/01/05 10:31:43;;;;;;;20.73;4.03;;;10.10;99.90;;;;;;5079593;28;20011;-69
2023/01/05 10:34:36;;;;;;;18.17;3.28;;;10.10;99.90;;;;;;5060027;28;20082;-69
2023/01/05 10:37:23;;;;;;;21.67;3.63;;;10.10;99.90;;;;;;5061341;28;20093;-69
2023/01/05 10:39:55;;;;;;;22.45;3.63;;;10.10;99.90;;;;;;5082765;28;20249;-69
2023/01/05 10:42:56;;;;;;;23.48;3.70;;;10.10;99.90;;;;;;5084353;28;20028;-69
2023/01/05 10:45:27;;;;;;;22.55;3.05;;;10.10;99.90;;;;;;5051471;28;20047;-69
2023/01/05 10:47:53;;;;;;;21.17;3.22;;;10.10;99.90;;;;;;5082137;28;20063;-69
2023/01/05 10:50:38;;;;;;;19.98;3.05;;;10.10;99.90;;;;;;5081905;28;20035;-69
2023/01/05 10:53:22;;;;;;;17.42;3.50;;;10.10;99.90;;;;;;5075474;28;20083;-69
2023/01/05 10:55:50;;;;;;;20.70;4.00;;;10.10;99.90;;;;;;5081711;28;20113;-69
2023/01/05 10:58:22;;;;;;;16.38;3.08;;;10.10;99.90;;;;;;5082288;28;20521;-69
2023/01/05 11:00:49;;;;;;;20.25;3.45;;;10.20;99.90;;;;;;5061616;28;20403;-69
2023/01/05 11:03:16;;;;;;;18.48;3.03;;;10.20;99.90;;;;;;5060351;28;20074;-69
2023/01/05 11:05:46;;;;;;;18.35;2.75;;;10.30;99.90;;;;;;5065864;28;20510;-69
2023/01/05 11:08:18;;;;;;;15.02;2.45;;;10.30;99.90;;;;;;5080807;28;20032;-69
2023/01/05 11:10:55;;;;;;;19.20;3.03;;;10.40;99.90;;;;;;5062350;28;20453;-69
2023/01/05 11:13:39;;;;;;;16.77;3.75;;;10.40;99.90;;;;;;5081605;28;20192;-67
2023/01/05 11:16:12;;;;;;;19.50;3.15;;;10.40;99.90;;;;;;5081775;28;20126;-67
2023/01/05 11:18:57;;;;;;;18.65;3.40;;;10.40;99.90;;;;;;5080730;28;20048;-64
2023/01/05 11:21:25;;;;;;;20.27;3.00;;;10.40;99.90;;;;;;5059110;28;20458;-63
2023/01/05 11:23:53;;;;;;;19.23;3.35;;;10.50;99.90;;;;;;5077669;28;20514;-63
2023/01/05 11:26:20;;;;;;;19.95;2.80;;;10.60;99.90;;;;;;5078702;28;20048;-63
2023/01/05 11:29:13;;;;;;;23.00;2.88;;;10.60;99.90;;;;;;5080789;28;20032;-63
2023/01/05 11:31:56;;;;;;;20.52;3.38;;;10.70;99.90;;;;;;5074254;28;20082;-63
2023/01/05 11:34:44;;;;;;;23.00;3.65;;;10.80;99.90;;;;;;5076300;28;20501;-63
2023/01/05 11:37:28;;;;;;;21.63;3.50;;;10.90;99.90;;;;;;5078722;28;20115;-62
2023/01/05 11:39:59;;;;;;;19.17;3.25;;;10.80;99.90;;;;;;5078021;28;20562;-67
2023/01/05 11:42:25;;;;;;;15.32;2.83;;;10.80;99.90;;;;;;5060870;28;20045;-67
2023/01/05 11:45:00;;;;;;;19.13;3.42;;;10.70;99.90;;;;;;5045861;28;20040;-67
2023/01/05 11:47:57;;;;;;;19.90;3.63;;;10.70;99.90;;;;;;5078228;28;20036;-65
2023/01/05 11:50:50;;;;;;;18.42;3.78;;;10.70;99.90;;;;;;5074972;28;20126;-66
2023/01/05 11:53:39;;;;;;;16.92;3.25;;;10.70;99.90;;;;;;5071718;28;20043;-65
2023/01/05 11:56:20;;;;;;;20.65;3.38;;;10.70;99.90;;;;;;5055020;28;20415;-65
2023/01/05 11:58:48;;;;;;;20.48;3.40;;;10.70;99.90;;;;;;5080445;28;20055;-68
2023/01/05 12:01:31;;;;;;;14.60;2.70;;;10.70;99.90;;;;;;5086164;28;20065;-68
2023/01/05 12:04:03;;;;;;;19.98;3.30;;;10.80;99.90;;;;;;5061487;28;20063;-68
2023/01/05 12:06:47;;;;;;;19.30;3.13;;;10.80;99.90;;;;;;5065137;28;20044;-68
2023/01/05 12:09:19;;;;;;;21.17;3.10;;;10.80;99.90;;;;;;5065258;28;20040;-68
2023/01/05 12:11:54;;;;;;;15.85;3.42;;;10.70;99.90;;;;;;5063703;28;20040;-67
2023/01/05 12:14:56;;;;;;;23.02;3.70;;;10.70;99.90;;;;;;5082632;28;20185;-67
2023/01/05 12:17:33;;;;;;;22.13;3.17;;;10.60;99.90;;;;;;5082992;28;20407;-69
2023/01/05 12:20:11;;;;;;;21.15;3.42;;;10.60;99.90;;;;;;5067378;28;20453;-68
2023/01/05 12:23:10;;;;;;;25.13;3.53;;;10.60;99.90;;;;;;5077883;28;20045;-68
2023/01/05 12:26:07;;;;;;;16.65;2.90;;;10.50;99.90;;;;;;5049538;28;20416;-68
2023/01/05 12:29:20;;;;;;;19.95;3.85;;;10.40;99.90;;;;;;5056004;28;20036;-68
2023/01/05 12:32:14;;;;;;;18.92;2.53;;;10.40;99.90;;;;;;5058787;28;20074;-69
2023/01/05 12:35:17;;;;;;;21.05;3.13;;;10.30;99.90;;;;;;5081047;28;20075;-69
2023/01/05 12:37:59;;;;;;;20.23;3.63;;;10.30;99.90;;;;;;5064328;28;20051;-69
2023/01/05 12:40:28;;;;;;;21.02;2.97;;;10.30;99.90;;;;;;5060333;28;20084;-69
2023/01/05 12:43:01;;;;;;;18.05;3.30;;;10.20;99.90;;;;;;5064153;28;20088;-68
2023/01/05 12:45:36;;;;;;;26.15;3.60;;;10.20;99.90;;;;;;5068061;28;20249;-69
2023/01/05 12:48:16;;;;;;;23.83;3.67;;;10.20;99.90;;;;;;5076851;28;20040;-69
2023/01/05 12:50:49;;;;;;;23.15;3.85;;;10.20;99.90;;;;;;5063053;28;20036;-69
2023/01/05 12:53:28;;;;;;;34.20;4.55;;;10.10;99.90;;;;;;5083150;28;20072;-68
2023/01/05 12:56:07;;;;;;;26.92;3.95;;;10.10;99.90;;;;;;5059171;28;20802;-69
2023/01/05 12:58:43;;;;;;;21.73;3.80;;;10.20;99.90;;;;;;5058688;28;20044;-69
2023/01/05 13:01:18;;;;;;;28.67;4.85;;;10.20;99.90;;;;;;5080054;28;20107;-69
2023/01/05 13:03:51;;;;;;;23.38;5.88;;;10.20;99.90;;;;;;5062575;28;20492;-69
2023/01/05 13:06:21;;;;;;;19.50;3.67;;;10.20;99.90;;;;;;5081023;28;20065;-69
2023/01/05 13:08:56;;;;;;;22.95;4.25;;;10.30;99.90;;;;;;5081793;28;20511;-68
2023/01/05 13:11:39;;;;;;;24.08;4.18;;;10.30;99.90;;;;;;5085933;28;20043;-68
2023/01/05 13:14:20;;;;;;;23.85;4.72;;;10.40;99.90;;;;;;5057933;28;20051;-68
2023/01/05 13:16:58;;;;;;;29.52;4.50;;;10.40;99.90;;;;;;5085999;28;20036;-68
2023/01/05 13:19:27;;;;;;;29.98;4.82;;;10.30;99.90;;;;;;5083801;28;20089;-68
2023/01/05 13:21:53;;;;;;;18.63;3.70;;;10.30;99.90;;;;;;5085403;28;20040;-68
2023/01/05 13:24:50;;;;;;;24.02;4.65;;;10.30;99.90;;;;;;5051109;28;20049;-68
2023/01/05 13:27:16;;;;;;;25.23;4.90;;;10.30;99.90;;;;;;5077810;28;20049;-68
2023/01/05 13:29:47;;;;;;;27.48;5.13;;;10.30;99.90;;;;;;5067699;28;20044;-68
2023/01/05 13:32:22;;;;;;;22.77;4.75;;;10.30;99.90;;;;;;5086740;28;20047;-68
2023/01/05 13:35:15;;;;;;;25.80;4.32;;;10.30;99.90;;;;;;5083647;28;20071;-68
2023/01/05 13:38:14;;;;;;;25.50;4.95;;;10.30;99.90;;;;;;5067538;28;20036;-68
2023/01/05 13:41:41;;;;;;;24.98;5.20;;;10.40;99.90;;;;;;5082322;28;20288;-68